Terminal Aerodrome Forecast
Issued by NWS Portland, OR

Home | Current Version | Previous Version | Text Only | Print | Product List | Glossary On
Versions: 1 2 3 4 5 6 7 8 9 10 11 12 13 14 15 16 17 18 19 20 21 22 23 24 25 26 27 28 29 30 31 32 33 34 35 36
609
FTUS46 KPQR 090520
TAFAST
TAF
KAST 090520Z 0906/1006 07012KT 4SM -SHRA BR BKN015 OVC025
     FM090800 13007KT 5SM -SHRA BR SCT015 BKN025 OVC040
     FM091000 20010KT P6SM -SHRA SCT025 OVC045
     FM091800 20006KT P6SM -SHRA BKN015 OVC025=

USA.gov is the U.S. government's official web portal to all federal, state and local government web resources and services.